Time;durP1;ratioP1;P1;durP2;ratioP2;P2;SDS_P1;SDS_P2;PMS_P1;PMS_P2;Temp;Humidity;BMP_temperature;BMP_pressure;BME280_temperature;BME280_humidity;BME280_pressure;Samples;Min_cycle;Max_cycle;Signal;HPM_P1;HPM_P2
2022/05/27 00:01:40;;;;;;;12.10;3.77;;;13.30;99.90;;;;;;5073032;28;20242;-82
2022/05/27 00:04:07;;;;;;;10.73;3.63;;;13.20;99.90;;;;;;5080381;28;20234;-81
2022/05/27 00:06:34;;;;;;;12.53;3.70;;;13.30;99.90;;;;;;5078610;28;20625;-81
2022/05/27 00:09:01;;;;;;;9.70;3.60;;;13.20;99.90;;;;;;5083939;28;20223;-81
2022/05/27 00:11:28;;;;;;;11.60;3.43;;;13.20;99.90;;;;;;5075769;28;20622;-80
2022/05/27 00:13:55;;;;;;;9.90;3.63;;;13.20;99.90;;;;;;5082735;28;20246;-80
2022/05/27 00:16:23;;;;;;;11.20;3.60;;;13.20;99.90;;;;;;5075618;28;20250;-81
2022/05/27 00:18:51;;;;;;;9.37;3.37;;;13.20;99.90;;;;;;5077361;28;20281;-81
2022/05/27 00:21:18;;;;;;;10.67;3.50;;;13.20;99.90;;;;;;5080021;28;20226;-81
2022/05/27 00:23:45;;;;;;;14.87;3.53;;;13.20;99.90;;;;;;5084540;28;20238;-80
2022/05/27 00:26:12;;;;;;;13.50;3.80;;;13.20;99.90;;;;;;5086781;28;20296;-80
2022/05/27 00:28:39;;;;;;;10.90;4.10;;;13.20;99.90;;;;;;5083110;28;20237;-80
2022/05/27 00:31:06;;;;;;;10.53;3.67;;;13.20;99.90;;;;;;5077886;28;20275;-80
2022/05/27 00:33:35;;;;;;;15.67;3.87;;;13.20;99.90;;;;;;5076716;28;20723;-81
2022/05/27 00:36:03;;;;;;;10.90;3.37;;;13.20;99.90;;;;;;5086551;28;20246;-81
2022/05/27 00:38:30;;;;;;;10.83;3.80;;;13.20;99.90;;;;;;5086656;28;20294;-81
2022/05/27 00:40:57;;;;;;;12.17;3.60;;;13.30;99.90;;;;;;5082288;28;20249;-81
2022/05/27 00:43:24;;;;;;;14.97;3.90;;;13.30;99.90;;;;;;5089128;28;20198;-81
2022/05/27 00:45:58;;;;;;;10.93;3.77;;;13.30;99.90;;;;;;5085474;28;20253;-81
2022/05/27 00:48:26;;;;;;;11.93;3.50;;;13.30;99.90;;;;;;5074607;28;20237;-80
2022/05/27 00:50:56;;;;;;;10.03;3.60;;;13.30;99.90;;;;;;5078517;28;20588;-81
2022/05/27 00:53:30;;;;;;;5.87;3.53;;;13.30;99.90;;;;;;5086504;28;20298;-81
2022/05/27 00:56:01;;;;;;;11.63;3.50;;;13.20;99.90;;;;;;5081430;28;20285;-81
2022/05/27 00:58:30;;;;;;;8.20;3.70;;;13.20;99.90;;;;;;5079694;28;20738;-81
2022/05/27 01:00:57;;;;;;;12.47;3.90;;;13.20;99.90;;;;;;5080805;28;20972;-81
2022/05/27 01:03:27;;;;;;;11.27;3.83;;;13.20;99.90;;;;;;5083225;28;20242;-81
2022/05/27 01:05:55;;;;;;;12.20;4.17;;;13.10;99.90;;;;;;5076998;28;20203;-81
2022/05/27 01:08:25;;;;;;;12.53;4.50;;;13.10;99.90;;;;;;5080486;28;20259;-81
2022/05/27 01:11:01;;;;;;;16.03;4.57;;;13.00;99.90;;;;;;5067628;28;20250;-80
2022/05/27 01:13:43;;;;;;;10.57;4.10;;;13.00;99.90;;;;;;5079119;28;20889;-81
2022/05/27 01:16:23;;;;;;;12.93;4.20;;;13.00;99.90;;;;;;5082302;28;20267;-81
2022/05/27 01:22:16;;;;;;;12.83;3.93;;;12.90;99.90;;;;;;5081950;28;20225;-80
2022/05/27 01:25:08;;;;;;;11.57;3.57;;;12.90;99.90;;;;;;5077247;28;20214;-80
2022/05/27 01:28:00;;;;;;;15.40;4.43;;;12.90;99.90;;;;;;5060671;28;20202;-82
2022/05/27 01:30:35;;;;;;;12.43;4.20;;;12.80;99.90;;;;;;5081795;28;20202;-81
2022/05/27 01:33:28;;;;;;;11.50;3.83;;;12.70;99.90;;;;;;5076497;28;20275;-82
2022/05/27 01:36:07;;;;;;;12.40;4.03;;;12.70;99.90;;;;;;5072638;28;20207;-81
2022/05/27 01:38:42;;;;;;;12.77;4.07;;;12.60;99.90;;;;;;5082615;28;20289;-81
2022/05/27 01:41:13;;;;;;;11.27;3.80;;;12.50;99.90;;;;;;5083561;28;20360;-82
2022/05/27 01:43:42;;;;;;;12.13;4.00;;;12.40;99.90;;;;;;5077977;28;20647;-81
2022/05/27 01:46:16;;;;;;;13.03;4.00;;;12.30;99.90;;;;;;5080054;28;20813;-82
2022/05/27 01:48:51;;;;;;;10.27;3.73;;;12.20;99.90;;;;;;5084227;28;20221;-82
2022/05/27 01:51:27;;;;;;;10.83;4.53;;;12.20;99.90;;;;;;5084088;28;20228;-82
2022/05/27 01:53:57;;;;;;;12.53;3.70;;;12.20;99.90;;;;;;5075691;28;20640;-81
2022/05/27 01:56:29;;;;;;;12.10;4.37;;;12.10;99.90;;;;;;5076070;28;20213;-81
2022/05/27 01:58:59;;;;;;;9.77;4.10;;;12.10;99.90;;;;;;5078273;28;20781;-81
2022/05/27 02:01:32;;;;;;;11.00;4.57;;;12.00;99.90;;;;;;5076143;28;20230;-81
2022/05/27 02:04:04;;;;;;;10.53;3.67;;;12.00;99.90;;;;;;5080410;28;20256;-81
2022/05/27 02:06:35;;;;;;;10.93;4.10;;;11.90;99.90;;;;;;5078558;28;20285;-82
2022/05/27 02:09:05;;;;;;;13.73;4.00;;;11.70;99.90;;;;;;5075090;28;20693;-81
2022/05/27 02:11:33;;;;;;;9.30;3.77;;;11.70;99.90;;;;;;5080132;28;20261;-82
2022/05/27 02:14:03;;;;;;;13.07;4.37;;;11.60;99.90;;;;;;5080511;28;20289;-81
2022/05/27 02:16:36;;;;;;;10.70;4.20;;;11.60;99.90;;;;;;5086073;28;20671;-81
2022/05/27 02:19:07;;;;;;;12.47;4.43;;;11.50;99.90;;;;;;5083895;28;20241;-81
2022/05/27 02:21:39;;;;;;;10.20;4.13;;;11.50;99.90;;;;;;5076836;28;20250;-81
2022/05/27 02:24:11;;;;;;;19.50;4.50;;;11.40;99.90;;;;;;5080190;28;20203;-82
2022/05/27 02:26:45;;;;;;;12.57;4.67;;;11.40;99.90;;;;;;5081455;28;20203;-81
2022/05/27 02:29:15;;;;;;;10.73;4.07;;;11.40;99.90;;;;;;5087864;28;20276;-81
2022/05/27 02:31:48;;;;;;;12.97;4.47;;;11.50;99.90;;;;;;5083743;28;20293;-81
2022/05/27 02:37:11;;;;;;;11.77;4.47;;;11.60;99.90;;;;;;5082950;28;20201;-81
2022/05/27 02:39:39;;;;;;;8.47;4.20;;;11.70;99.90;;;;;;5083885;28;20238;-81
2022/05/27 02:42:14;;;;;;;10.80;4.60;;;11.70;99.90;;;;;;5091753;28;20305;-81
2022/05/27 02:44:49;;;;;;;13.03;4.50;;;11.80;99.90;;;;;;5083753;28;20300;-81
2022/05/27 02:47:26;;;;;;;10.87;4.27;;;11.80;99.90;;;;;;5082369;28;20234;-81
2022/05/27 02:50:02;;;;;;;11.50;4.33;;;11.90;99.90;;;;;;5085808;28;20263;-81
2022/05/27 02:52:37;;;;;;;13.00;4.63;;;11.90;99.90;;;;;;5086668;28;20282;-81
2022/05/27 02:55:12;;;;;;;11.23;4.40;;;11.90;99.90;;;;;;5077131;28;20705;-82
2022/05/27 02:57:45;;;;;;;12.53;4.20;;;11.90;99.90;;;;;;5084809;28;20233;-81
2022/05/27 03:00:16;;;;;;;13.20;4.70;;;12.00;99.90;;;;;;5078795;28;20301;-81
2022/05/27 03:02:45;;;;;;;14.07;4.90;;;12.00;99.90;;;;;;5077703;28;20712;-82
2022/05/27 03:05:14;;;;;;;10.30;4.23;;;12.00;99.90;;;;;;5083906;28;20295;-82
2022/05/27 03:08:09;;;;;;;7.70;4.00;;;12.00;99.90;;;;;;5086750;28;20289;-82
2022/05/27 03:10:47;;;;;;;12.00;4.47;;;12.00;99.90;;;;;;5080471;28;20225;-81
2022/05/27 03:13:37;;;;;;;14.07;4.03;;;12.10;99.90;;;;;;5081053;28;20221;-82
2022/05/27 03:16:13;;;;;;;8.13;3.67;;;12.10;99.90;;;;;;5082695;28;20316;-82
2022/05/27 03:18:57;;;;;;;13.77;4.20;;;12.10;99.90;;;;;;5088663;28;20307;-81
2022/05/27 03:21:33;;;;;;;13.33;4.40;;;12.20;99.90;;;;;;5081505;28;20310;-81
2022/05/27 03:24:15;;;;;;;10.97;3.90;;;12.20;99.90;;;;;;5076776;28;20674;-81
2022/05/27 03:26:52;;;;;;;11.27;4.17;;;12.20;99.90;;;;;;5078536;28;20771;-81
2022/05/27 03:29:29;;;;;;;12.10;3.90;;;12.20;99.90;;;;;;5081355;28;20212;-82
2022/05/27 03:32:02;;;;;;;11.27;3.90;;;12.30;99.90;;;;;;5083564;28;20286;-81
2022/05/27 03:34:36;;;;;;;11.87;4.10;;;12.30;99.90;;;;;;5077729;28;20294;-81
2022/05/27 03:37:05;;;;;;;8.40;3.90;;;12.30;99.90;;;;;;5076205;28;20694;-81
2022/05/27 03:39:40;;;;;;;11.40;4.37;;;12.30;99.90;;;;;;5076535;28;20235;-81
2022/05/27 03:42:10;;;;;;;12.73;4.10;;;12.30;99.90;;;;;;5076426;28;20254;-81
2022/05/27 03:44:37;;;;;;;9.60;4.20;;;12.30;99.90;;;;;;5089180;28;20279;-81
2022/05/27 03:47:04;;;;;;;9.90;4.20;;;12.30;99.90;;;;;;5083850;28;20237;-80
2022/05/27 03:49:33;;;;;;;10.60;4.30;;;12.30;99.90;;;;;;5082902;28;20282;-80
2022/05/27 03:52:04;;;;;;;8.37;3.70;;;12.40;99.90;;;;;;5080191;28;20647;-80
2022/05/27 03:54:31;;;;;;;11.77;4.00;;;12.40;99.90;;;;;;5074289;28;20247;-81
2022/05/27 03:56:58;;;;;;;11.17;3.87;;;12.40;99.90;;;;;;5084691;28;20208;-81
2022/05/27 03:59:26;;;;;;;9.07;4.00;;;12.40;99.90;;;;;;5081374;28;20212;-80
2022/05/27 04:01:55;;;;;;;10.07;4.33;;;12.40;99.90;;;;;;5075616;28;20741;-81
2022/05/27 04:04:24;;;;;;;7.47;3.57;;;12.40;99.90;;;;;;5075872;28;20654;-81
2022/05/27 04:06:52;;;;;;;13.17;4.43;;;12.40;99.90;;;;;;5081224;28;20678;-80
2022/05/27 04:09:21;;;;;;;10.93;4.60;;;12.40;99.90;;;;;;5076798;28;20313;-81
2022/05/27 04:11:48;;;;;;;12.83;4.47;;;12.40;99.90;;;;;;5073004;28;20241;-80
2022/05/27 04:14:16;;;;;;;11.20;4.03;;;12.40;99.90;;;;;;5078535;28;20952;-81
2022/05/27 04:16:43;;;;;;;10.97;4.23;;;12.40;99.90;;;;;;5082444;28;20246;-82
2022/05/27 04:19:10;;;;;;;11.40;4.07;;;12.50;99.90;;;;;;5081843;28;20299;-81
2022/05/27 04:21:37;;;;;;;9.47;3.70;;;12.50;99.90;;;;;;5086082;28;20257;-81
2022/05/27 04:24:07;;;;;;;8.40;4.00;;;12.50;99.90;;;;;;5081310;28;20285;-81
2022/05/27 04:26:34;;;;;;;9.63;4.07;;;12.50;99.90;;;;;;5080983;28;20245;-81
2022/05/27 04:29:01;;;;;;;11.40;4.00;;;12.50;99.90;;;;;;5082227;28;20240;-81
2022/05/27 04:31:29;;;;;;;9.20;3.50;;;12.60;99.90;;;;;;5076970;28;20203;-81
2022/05/27 04:33:56;;;;;;;10.97;4.10;;;12.60;99.90;;;;;;5078101;28;20735;-81
2022/05/27 04:36:23;;;;;;;12.77;3.63;;;12.60;99.90;;;;;;5078309;28;20237;-81
2022/05/27 04:38:50;;;;;;;15.37;3.47;;;12.60;99.90;;;;;;5072102;28;20198;-81
2022/05/27 04:41:18;;;;;;;9.40;3.50;;;12.70;99.90;;;;;;5078102;28;20227;-81
2022/05/27 04:43:45;;;;;;;10.33;3.50;;;12.70;99.90;;;;;;5075091;28;20234;-81
2022/05/27 04:46:12;;;;;;;11.17;3.57;;;12.70;99.90;;;;;;5076836;28;20280;-81
2022/05/27 04:48:39;;;;;;;8.87;3.77;;;12.80;99.90;;;;;;5080328;28;20233;-82
2022/05/27 04:51:07;;;;;;;9.93;3.70;;;12.80;99.90;;;;;;5076262;28;20274;-82
2022/05/27 04:53:34;;;;;;;7.43;3.50;;;12.90;99.90;;;;;;5081395;28;20211;-81
2022/05/27 04:56:02;;;;;;;8.37;3.60;;;13.00;99.90;;;;;;5076812;28;20203;-81
2022/05/27 04:58:31;;;;;;;7.47;3.70;;;13.00;99.90;;;;;;5078269;28;20225;-81
2022/05/27 05:00:59;;;;;;;7.77;3.10;;;13.00;99.90;;;;;;5082307;28;20918;-81
2022/05/27 05:03:26;;;;;;;8.93;3.60;;;13.10;99.90;;;;;;5085076;28;20237;-81
2022/05/27 05:05:52;;;;;;;7.27;3.20;;;13.20;99.90;;;;;;5089507;28;20874;-82
2022/05/27 05:08:28;;;;;;;7.97;3.10;;;13.30;99.90;;;;;;5081107;28;20241;-81
2022/05/27 05:10:55;;;;;;;6.83;3.13;;;13.40;99.90;;;;;;5078159;28;20731;-81
2022/05/27 05:13:22;;;;;;;7.03;2.80;;;13.40;99.90;;;;;;5079600;28;20226;-81
2022/05/27 05:15:50;;;;;;;7.90;3.03;;;13.40;99.90;;;;;;5083169;28;20733;-81
2022/05/27 05:18:17;;;;;;;6.27;2.93;;;13.50;99.90;;;;;;5084028;28;20226;-81
2022/05/27 05:20:45;;;;;;;9.13;3.13;;;13.50;99.90;;;;;;5078706;28;20229;-81
2022/05/27 05:23:11;;;;;;;6.87;2.47;;;13.60;99.90;;;;;;5081914;28;20280;-82
2022/05/27 05:25:38;;;;;;;8.50;2.90;;;13.60;99.90;;;;;;5087288;28;20681;-82
2022/05/27 05:28:06;;;;;;;7.43;2.50;;;13.70;99.90;;;;;;5084915;28;20293;-82
2022/05/27 05:30:32;;;;;;;6.10;2.43;;;13.80;99.90;;;;;;5086676;28;20681;-82
2022/05/27 05:33:01;;;;;;;5.10;2.10;;;13.90;99.90;;;;;;5080551;28;20195;-81
2022/05/27 05:35:28;;;;;;;4.47;2.43;;;14.00;99.90;;;;;;5079333;28;20667;-81
2022/05/27 05:37:56;;;;;;;6.33;2.50;;;14.00;99.90;;;;;;5085015;28;20301;-81
2022/05/27 05:40:24;;;;;;;5.23;2.37;;;14.10;99.90;;;;;;5078358;28;20645;-81
2022/05/27 05:42:50;;;;;;;5.93;2.30;;;14.10;99.90;;;;;;5072265;28;20229;-81
2022/05/27 05:45:20;;;;;;;5.37;2.30;;;14.20;99.90;;;;;;5079134;28;20230;-81
2022/05/27 05:47:47;;;;;;;6.03;2.47;;;14.10;99.90;;;;;;5085962;28;20218;-81
2022/05/27 05:50:17;;;;;;;6.47;2.50;;;14.10;99.90;;;;;;5078628;28;20272;-81
2022/05/27 05:52:45;;;;;;;6.03;2.30;;;14.20;99.90;;;;;;5084091;28;20230;-81
2022/05/27 05:55:14;;;;;;;6.60;2.20;;;14.00;99.90;;;;;;5085991;28;20779;-81
2022/05/27 05:57:42;;;;;;;6.97;2.70;;;14.00;99.90;;;;;;5084709;28;20207;-81
2022/05/27 06:00:12;;;;;;;4.73;2.57;;;14.10;99.90;;;;;;5079789;28;20301;-82
2022/05/27 06:02:39;;;;;;;8.43;2.43;;;14.10;99.90;;;;;;5087087;28;20243;-81
2022/05/27 06:05:07;;;;;;;5.80;2.73;;;14.20;99.90;;;;;;5089361;28;20262;-81
2022/05/27 06:07:35;;;;;;;6.17;2.47;;;14.30;99.90;;;;;;5086348;28;20234;-81
2022/05/27 06:10:03;;;;;;;6.43;2.47;;;14.30;99.90;;;;;;5079664;28;20261;-81
2022/05/27 06:12:35;;;;;;;5.73;2.27;;;14.40;99.90;;;;;;5087647;28;20742;-81
2022/05/27 06:15:03;;;;;;;5.13;2.47;;;14.40;99.90;;;;;;5090446;28;20230;-82
2022/05/27 06:17:30;;;;;;;9.10;2.40;;;14.60;99.90;;;;;;5082861;28;20280;-81
2022/05/27 06:19:57;;;;;;;5.33;2.20;;;14.70;99.90;;;;;;5081349;28;20624;-82
2022/05/27 06:22:24;;;;;;;6.53;2.40;;;15.00;99.90;;;;;;5085265;28;20218;-81
2022/05/27 06:24:53;;;;;;;5.43;2.50;;;15.30;99.90;;;;;;5079549;28;21028;-82
2022/05/27 06:27:20;;;;;;;4.53;1.80;;;15.40;99.90;;;;;;5089398;28;20210;-81
2022/05/27 06:35:15;;;;;;;7.70;2.30;;;16.50;99.90;;;;;;5091275;28;20205;-82
2022/05/27 06:37:42;;;;;;;6.13;1.80;;;16.80;99.90;;;;;;5084952;28;20298;-81
2022/05/27 06:40:12;;;;;;;5.07;1.60;;;16.90;99.90;;;;;;5086534;28;20309;-82
2022/05/27 06:42:39;;;;;;;7.07;2.00;;;17.00;99.90;;;;;;5079924;28;20290;-81
2022/05/27 06:45:09;;;;;;;7.00;1.80;;;16.80;99.90;;;;;;5081146;28;20776;-82
2022/05/27 06:47:36;;;;;;;6.17;1.80;;;16.70;99.90;;;;;;5084047;28;20297;-82
2022/05/27 06:50:03;;;;;;;3.13;1.43;;;16.70;99.90;;;;;;5083852;28;20228;-82
2022/05/27 06:52:30;;;;;;;4.30;1.50;;;16.70;99.90;;;;;;5084655;28;20199;-82
2022/05/27 06:54:57;;;;;;;4.10;1.50;;;16.60;99.90;;;;;;5080333;28;20207;-82
2022/05/27 06:57:26;;;;;;;6.03;2.17;;;16.80;99.90;;;;;;5087432;28;20233;-82
2022/05/27 06:59:53;;;;;;;5.07;1.60;;;16.80;99.90;;;;;;5075936;28;20235;-81
2022/05/27 07:02:22;;;;;;;5.40;1.37;;;17.00;99.90;;;;;;5075869;28;20250;-81
2022/05/27 07:04:49;;;;;;;2.60;1.20;;;17.10;99.90;;;;;;5085936;28;20209;-82
2022/05/27 07:07:16;;;;;;;3.25;1.23;;;17.20;99.90;;;;;;5085560;28;20234;-82
2022/05/27 07:09:43;;;;;;;3.90;1.45;;;17.30;99.90;;;;;;5081369;28;20287;-82
2022/05/27 07:12:12;;;;;;;7.70;1.58;;;17.50;99.90;;;;;;5085710;28;20297;-82
2022/05/27 07:14:40;;;;;;;5.03;1.42;;;17.50;99.90;;;;;;5082318;28;21676;-82
2022/05/27 07:17:08;;;;;;;4.10;1.30;;;17.70;99.90;;;;;;5078905;28;20281;-82
2022/05/27 07:19:35;;;;;;;4.10;1.40;;;17.80;99.90;;;;;;5084161;28;20255;-82
2022/05/27 07:22:02;;;;;;;2.47;1.40;;;18.00;99.90;;;;;;5084922;28;20676;-82
2022/05/27 07:24:29;;;;;;;4.78;1.42;;;18.10;99.90;;;;;;5084144;28;20234;-82
2022/05/27 07:26:56;;;;;;;5.18;1.33;;;18.10;99.90;;;;;;5077183;28;20289;-82
2022/05/27 07:29:24;;;;;;;3.53;1.60;;;18.10;99.90;;;;;;5086534;28;20264;-82
2022/05/27 07:31:52;;;;;;;3.53;1.20;;;17.90;99.90;;;;;;5080145;28;20282;-82
2022/05/27 07:34:19;;;;;;;3.15;1.33;;;17.80;99.90;;;;;;5083525;28;20238;-82
2022/05/27 07:36:46;;;;;;;3.30;1.10;;;18.20;99.90;;;;;;5078352;28;20234;-82
2022/05/27 07:39:13;;;;;;;4.97;1.20;;;18.30;99.90;;;;;;5090544;28;20245;-81
2022/05/27 07:41:39;;;;;;;5.90;1.60;;;18.50;99.90;;;;;;5082577;28;20300;-82
2022/05/27 07:44:07;;;;;;;3.75;1.10;;;18.50;99.90;;;;;;5083129;28;20682;-82
2022/05/27 07:46:37;;;;;;;1.98;0.90;;;18.60;99.90;;;;;;5082814;28;20269;-82
2022/05/27 07:49:07;;;;;;;3.00;1.10;;;18.20;99.90;;;;;;5087018;28;20199;-82
2022/05/27 07:51:34;;;;;;;2.28;1.00;;;18.00;99.90;;;;;;5082908;28;20209;-82
2022/05/27 07:54:01;;;;;;;2.33;1.27;;;17.80;99.90;;;;;;5082879;28;20256;-82
2022/05/27 07:56:27;;;;;;;3.05;1.33;;;17.60;99.90;;;;;;5082294;28;20238;-81
2022/05/27 07:58:54;;;;;;;3.28;1.08;;;17.40;99.90;;;;;;5079979;28;20231;-82
2022/05/27 08:01:21;;;;;;;2.17;1.00;;;17.60;99.90;;;;;;5076426;28;20246;-82
2022/05/27 08:03:48;;;;;;;3.58;1.17;;;18.00;99.90;;;;;;5079540;28;20326;-82
2022/05/27 08:06:17;;;;;;;1.83;0.95;;;18.30;99.90;;;;;;5080706;28;20640;-82
2022/05/27 08:08:44;;;;;;;1.52;1.00;;;18.50;99.90;;;;;;5079586;28;20261;-82
2022/05/27 08:11:10;;;;;;;3.60;1.10;;;18.30;99.90;;;;;;5081003;28;20215;-82
2022/05/27 08:13:39;;;;;;;2.60;0.90;;;18.50;99.90;;;;;;5076532;28;20199;-82
2022/05/27 08:16:07;;;;;;;1.42;0.75;;;19.20;99.90;;;;;;5084161;28;20263;-82
2022/05/27 08:18:33;;;;;;;1.95;0.80;;;19.30;99.90;;;;;;5080127;28;20222;-82
2022/05/27 08:21:00;;;;;;;3.05;0.90;;;19.30;99.90;;;;;;5078447;28;20744;-82
2022/05/27 08:23:29;;;;;;;2.03;1.08;;;19.00;99.90;;;;;;5080243;28;21023;-82
2022/05/27 08:25:56;;;;;;;4.07;1.00;;;18.60;99.90;;;;;;5082252;28;20286;-82
2022/05/27 08:28:25;;;;;;;2.05;1.08;;;18.40;99.90;;;;;;5077686;28;20218;-82
2022/05/27 08:30:55;;;;;;;6.40;1.13;;;18.40;99.90;;;;;;5081567;28;20209;-81
2022/05/27 08:33:24;;;;;;;3.17;1.15;;;18.80;99.90;;;;;;5072738;28;20195;-82
2022/05/27 08:38:38;;;;;;;4.28;1.20;;;19.00;99.90;;;;;;5084090;28;20190;-81
2022/05/27 08:41:46;;;;;;;3.38;1.20;;;19.00;99.90;;;;;;5082370;28;20633;-81
2022/05/27 08:44:34;;;;;;;3.20;1.10;;;18.90;99.90;;;;;;5076139;28;20356;-81
2022/05/27 08:47:09;;;;;;;3.40;1.27;;;18.60;99.90;;;;;;5077766;28;20722;-81
2022/05/27 08:49:40;;;;;;;3.63;1.20;;;18.60;99.90;;;;;;5084121;28;20202;-81
2022/05/27 08:52:13;;;;;;;3.55;1.27;;;18.80;99.90;;;;;;5088719;28;20234;-82
2022/05/27 08:54:45;;;;;;;6.00;1.38;;;19.00;99.90;;;;;;5077309;28;20253;-81
2022/05/27 09:00:05;;;;;;;2.80;1.17;;;18.60;99.90;;;;;;5089322;28;20279;-81
2022/05/27 09:02:37;;;;;;;4.18;1.60;;;18.50;99.90;;;;;;5081530;28;20664;-82
2022/05/27 09:05:15;;;;;;;1.33;0.90;;;18.40;99.90;;;;;;5061280;28;20229;-81
2022/05/27 09:07:48;;;;;;;4.63;1.30;;;18.50;99.90;;;;;;5070048;28;20584;-82
2022/05/27 09:10:19;;;;;;;3.40;1.40;;;18.40;99.90;;;;;;5086945;28;20744;-82
2022/05/27 09:12:59;;;;;;;4.10;1.35;;;18.40;99.90;;;;;;5074900;28;20210;-81
2022/05/27 09:15:34;;;;;;;3.15;1.48;;;18.50;99.90;;;;;;5082327;28;20292;-81
2022/05/27 09:18:07;;;;;;;2.63;1.20;;;18.30;99.90;;;;;;5072578;28;20202;-81
2022/05/27 09:20:49;;;;;;;2.47;1.42;;;18.30;99.90;;;;;;5076077;28;20230;-82
2022/05/27 09:23:43;;;;;;;4.45;1.50;;;18.70;99.90;;;;;;5079361;28;20229;-81
2022/05/27 09:26:18;;;;;;;3.92;1.30;;;19.00;99.90;;;;;;5082613;28;20294;-82
2022/05/27 09:28:54;;;;;;;2.75;1.08;;;19.40;99.90;;;;;;5078092;28;20205;-82
2022/05/27 09:31:31;;;;;;;1.95;1.00;;;19.60;99.90;;;;;;5071935;28;20209;-82
2022/05/27 09:33:59;;;;;;;2.10;1.20;;;19.50;99.90;;;;;;5082019;28;20198;-82
2022/05/27 09:36:34;;;;;;;2.45;1.30;;;19.60;99.90;;;;;;5072165;28;20298;-82
2022/05/27 09:39:04;;;;;;;3.22;1.15;;;19.50;99.90;;;;;;5079347;28;20218;-81
2022/05/27 09:41:39;;;;;;;2.90;1.27;;;19.10;99.90;;;;;;5085493;28;20293;-81
2022/05/27 09:44:21;;;;;;;2.55;1.30;;;19.10;99.90;;;;;;5084481;28;20377;-82
2022/05/27 09:46:48;;;;;;;2.67;1.00;;;19.10;99.90;;;;;;5078798;28;20277;-81
2022/05/27 09:49:15;;;;;;;4.10;1.00;;;19.70;99.90;;;;;;5079595;28;20290;-81
2022/05/27 09:51:41;;;;;;;2.88;1.10;;;19.30;99.90;;;;;;5086140;28;20306;-81
2022/05/27 09:54:24;;;;;;;2.47;1.20;;;19.60;99.90;;;;;;5072360;28;20621;-81
2022/05/27 09:57:02;;;;;;;2.08;1.13;;;20.10;99.90;;;;;;5079164;28;20215;-82
2022/05/27 09:59:36;;;;;;;2.83;1.10;;;20.00;99.90;;;;;;5078119;28;20203;-81
2022/05/27 10:02:29;;;;;;;2.63;1.13;;;20.00;99.90;;;;;;5071627;28;20285;-82
2022/05/27 10:04:59;;;;;;;4.07;1.20;;;19.60;99.90;;;;;;5079561;28;20214;-82
2022/05/27 10:07:32;;;;;;;2.95;1.30;;;19.10;99.90;;;;;;5081506;28;20287;-81
2022/05/27 10:10:19;;;;;;;1.90;1.38;;;18.80;99.90;;;;;;5082189;28;20297;-82
2022/05/27 10:12:47;;;;;;;2.55;1.45;;;19.20;99.90;;;;;;5074211;28;20626;-82
2022/05/27 10:15:31;;;;;;;2.55;1.10;;;19.50;99.90;;;;;;5082136;28;20238;-82
2022/05/27 10:18:17;;;;;;;2.58;1.08;;;20.20;99.90;;;;;;5083264;28;20971;-82
2022/05/27 10:20:48;;;;;;;2.25;1.10;;;20.80;99.90;;;;;;5075734;28;20332;-82
2022/05/27 10:23:25;;;;;;;3.90;1.35;;;21.00;99.90;;;;;;5060495;28;20258;-82
2022/05/27 10:25:52;;;;;;;2.67;1.00;;;21.50;99.90;;;;;;5074457;28;20210;-82
2022/05/27 10:28:30;;;;;;;1.33;0.75;;;21.60;99.90;;;;;;5072874;28;20234;-82
2022/05/27 10:31:00;;;;;;;1.48;0.93;;;22.00;99.90;;;;;;5082778;28;20713;-82
2022/05/27 10:33:39;;;;;;;1.65;0.90;;;22.10;99.90;;;;;;5072328;28;20198;-82
2022/05/27 10:36:37;;;;;;;1.80;1.20;;;22.40;99.90;;;;;;5086936;28;20198;-82
2022/05/27 10:39:07;;;;;;;2.30;0.98;;;21.70;99.90;;;;;;5069329;28;20656;-82
2022/05/27 10:41:49;;;;;;;2.08;1.00;;;21.80;99.90;;;;;;5077546;28;20286;-82
2022/05/27 10:44:27;;;;;;;3.15;1.15;;;22.10;99.90;;;;;;5083361;28;20222;-82
2022/05/27 10:46:56;;;;;;;1.30;0.90;;;22.10;99.90;;;;;;5075747;28;20309;-82
2022/05/27 10:49:38;;;;;;;2.75;0.93;;;22.00;99.90;;;;;;5079173;28;20229;-82
2022/05/27 10:52:21;;;;;;;1.45;0.98;;;21.90;99.90;;;;;;5076271;28;20282;-82
2022/05/27 10:54:59;;;;;;;0.80;0.75;;;21.40;99.90;;;;;;5088801;28;20198;-81
2022/05/27 11:03:40;;;;;;;1.17;0.70;;;21.90;99.90;;;;;;5075067;28;20964;-82
2022/05/27 11:06:26;;;;;;;1.83;1.00;;;21.60;99.90;;;;;;5076969;28;20681;-82
2022/05/27 11:09:07;;;;;;;1.17;0.75;;;21.10;99.90;;;;;;5075001;28;20214;-82
2022/05/27 11:11:41;;;;;;;1.23;0.90;;;22.10;99.90;;;;;;5074613;28;20230;-82
2022/05/27 11:17:11;;;;;;;2.10;0.98;;;21.90;99.90;;;;;;5081349;28;20692;-82
2022/05/27 11:19:58;;;;;;;2.25;0.90;;;22.20;99.90;;;;;;5069894;28;20663;-82
2022/05/27 11:22:35;;;;;;;1.10;0.90;;;22.10;99.90;;;;;;5080834;28;20237;-82
2022/05/27 11:25:27;;;;;;;2.85;0.93;;;21.70;99.90;;;;;;5077891;28;20327;-82
2022/05/27 11:28:15;;;;;;;1.70;0.93;;;21.90;99.90;;;;;;5083092;28;20296;-82
2022/05/27 11:30:50;;;;;;;2.03;0.90;;;22.50;99.90;;;;;;5081598;28;21030;-82
2022/05/27 11:33:33;;;;;;;1.63;0.80;;;23.00;99.90;;;;;;5074671;28;20199;-82
2022/05/27 11:36:24;;;;;;;1.60;0.70;;;22.70;99.90;;;;;;5081667;28;20203;-82
2022/05/27 11:39:03;;;;;;;1.00;0.80;;;22.70;99.90;;;;;;5083465;28;20326;-82
2022/05/27 11:41:33;;;;;;;2.22;0.80;;;22.50;99.90;;;;;;5089068;28;20746;-82
2022/05/27 11:44:11;;;;;;;1.95;0.93;;;22.00;99.90;;;;;;5079159;28;20309;-82
2022/05/27 11:46:56;;;;;;;2.30;1.00;;;21.40;99.90;;;;;;5085272;28;20234;-82
2022/05/27 11:49:37;;;;;;;2.10;1.40;;;20.40;99.90;;;;;;5074734;28;20308;-81
2022/05/27 11:52:37;;;;;;;2.65;1.30;;;20.10;99.90;;;;;;5087924;28;20194;-82
2022/05/27 11:55:21;;;;;;;1.67;0.73;;;19.70;99.90;;;;;;5085582;28;20245;-82
2022/05/27 11:58:01;;;;;;;0.60;0.57;;;19.40;99.90;;;;;;5077835;28;20235;-81
2022/05/27 12:00:32;;;;;;;0.95;0.85;;;19.50;99.90;;;;;;5081123;28;20305;-82
2022/05/27 12:03:05;;;;;;;2.75;0.82;;;19.40;99.90;;;;;;5077216;28;20234;-82
2022/05/27 12:05:39;;;;;;;1.33;0.90;;;19.40;99.90;;;;;;5080152;28;20286;-82
2022/05/27 12:08:16;;;;;;;1.52;0.95;;;19.70;99.90;;;;;;5080907;28;20230;-81
2022/05/27 12:10:47;;;;;;;1.08;0.85;;;20.10;99.90;;;;;;5076078;28;20235;-82
2022/05/27 12:13:26;;;;;;;1.63;0.70;;;20.40;99.90;;;;;;5081660;28;20195;-81
2022/05/27 12:15:56;;;;;;;1.33;0.88;;;20.80;99.90;;;;;;5074078;28;20476;-82
2022/05/27 12:18:29;;;;;;;1.60;0.73;;;21.10;99.90;;;;;;5086928;28;20233;-82
2022/05/27 12:20:58;;;;;;;1.38;0.80;;;21.60;99.90;;;;;;5079275;28;20235;-81
2022/05/27 12:23:29;;;;;;;1.70;0.85;;;21.40;99.90;;;;;;5079069;28;20292;-82
2022/05/27 12:26:00;;;;;;;2.92;0.93;;;21.00;99.90;;;;;;5083137;28;20227;-82
2022/05/27 12:28:30;;;;;;;1.70;0.80;;;21.00;99.90;;;;;;5076393;28;20238;-82
2022/05/27 12:30:59;;;;;;;1.27;0.95;;;20.80;99.90;;;;;;5080130;28;20199;-82
2022/05/27 12:33:29;;;;;;;5.40;1.30;;;21.00;99.90;;;;;;5083297;28;20231;-82
2022/05/27 12:36:02;;;;;;;1.40;0.85;;;20.60;99.90;;;;;;5080770;28;20202;-82
2022/05/27 12:38:31;;;;;;;1.70;0.88;;;20.30;99.90;;;;;;5081427;28;20241;-82
2022/05/27 12:41:01;;;;;;;1.65;0.75;;;20.30;99.90;;;;;;5078651;28;20294;-81
2022/05/27 12:43:31;;;;;;;2.03;1.00;;;19.90;99.90;;;;;;5086067;28;20258;-81
2022/05/27 12:46:15;;;;;;;1.50;1.10;;;19.60;99.90;;;;;;5081574;28;20675;-82
2022/05/27 12:48:44;;;;;;;1.02;0.73;;;19.40;99.90;;;;;;5077945;28;20220;-81
2022/05/27 12:51:38;;;;;;;0.85;0.68;;;19.40;99.90;;;;;;5075816;28;20290;-81
2022/05/27 12:54:05;;;;;;;1.70;0.65;;;19.20;99.90;;;;;;5072787;28;20277;-81
2022/05/27 13:02:49;;;;;;;1.52;0.68;;;19.20;99.90;;;;;;5079833;28;20581;-82
2022/05/27 13:05:18;;;;;;;0.65;0.65;;;19.70;99.90;;;;;;5058113;28;20226;-82
2022/05/27 13:07:52;;;;;;;1.10;0.55;;;20.60;99.90;;;;;;5083357;28;20290;-81
2022/05/27 13:10:49;;;;;;;1.92;0.60;;;21.00;99.90;;;;;;5075912;28;20258;-82
2022/05/27 13:13:22;;;;;;;1.08;0.70;;;21.60;99.90;;;;;;5008567;28;20713;-82
2022/05/27 13:15:54;;;;;;;1.00;0.70;;;22.10;99.90;;;;;;5008986;28;20205;-82
2022/05/27 13:18:36;;;;;;;1.65;0.98;;;21.90;99.90;;;;;;5004748;28;20219;-82
2022/05/27 13:21:11;;;;;;;1.20;1.10;;;21.50;99.90;;;;;;5006361;28;20744;-82
2022/05/27 13:23:53;;;;;;;1.63;0.90;;;20.90;99.90;;;;;;5007590;28;20731;-82
2022/05/27 13:26:32;;;;;;;2.15;0.90;;;20.80;99.90;;;;;;5004328;28;20754;-81
2022/05/27 13:29:00;;;;;;;1.40;1.10;;;20.70;99.90;;;;;;5007971;28;20219;-81
2022/05/27 13:31:34;;;;;;;1.30;1.00;;;20.50;99.90;;;;;;5008104;28;20236;-82
2022/05/27 13:34:06;;;;;;;2.65;1.20;;;20.60;99.90;;;;;;5008917;28;20259;-82
2022/05/27 13:36:38;;;;;;;1.95;1.30;;;21.00;99.90;;;;;;5009593;28;20299;-82
2022/05/27 13:39:10;;;;;;;2.42;1.00;;;21.70;99.90;;;;;;5008215;28;20228;-81
2022/05/27 13:41:41;;;;;;;1.23;0.98;;;21.60;99.90;;;;;;5009831;28;20252;-82